sensor_id;sensor_type;location;lat;lon;timestamp;temperature;humidity
35033;DHT22;21223;45.644;13.756;2022-07-23T04:22:50;27.90;80.30
35033;DHT22;21223;45.644;13.756;2022-07-23T04:25:15;27.30;83.70
35033;DHT22;21223;45.644;13.756;2022-07-23T04:27:42;26.80;84.60
35033;DHT22;21223;45.644;13.756;2022-07-23T04:30:09;26.50;85.50
35033;DHT22;21223;45.644;13.756;2022-07-23T04:32:34;26.50;84.50
35033;DHT22;21223;45.644;13.756;2022-07-23T04:35:00;26.40;83.90
35033;DHT22;21223;45.644;13.756;2022-07-23T04:37:26;26.40;84.40
35033;DHT22;21223;45.644;13.756;2022-07-23T04:39:54;26.40;85.00
35033;DHT22;21223;45.644;13.756;2022-07-23T04:42:20;26.50;85.20
35033;DHT22;21223;45.644;13.756;2022-07-23T04:44:46;26.60;86.00
35033;DHT22;21223;45.644;13.756;2022-07-23T04:47:12;26.80;86.00
35033;DHT22;21223;45.644;13.756;2022-07-23T04:49:38;27.20;87.20
35033;DHT22;21223;45.644;13.756;2022-07-23T04:52:07;27.50;84.60
35033;DHT22;21223;45.644;13.756;2022-07-23T04:54:43;27.60;84.30
35033;DHT22;21223;45.644;13.756;2022-07-23T04:57:09;27.80;85.60
35033;DHT22;21223;45.644;13.756;2022-07-23T04:59:35;27.70;83.90
35033;DHT22;21223;45.644;13.756;2022-07-23T05:02:33;27.80;85.50
35033;DHT22;21223;45.644;13.756;2022-07-23T05:04:59;27.60;83.10
35033;DHT22;21223;45.644;13.756;2022-07-23T05:07:28;27.80;83.60
35033;DHT22;21223;45.644;13.756;2022-07-23T05:09:54;27.90;82.60
35033;DHT22;21223;45.644;13.756;2022-07-23T05:19:16;28.10;77.40
35033;DHT22;21223;45.644;13.756;2022-07-23T05:21:45;28.30;78.00
35033;DHT22;21223;45.644;13.756;2022-07-23T05:24:24;28.30;77.90
35033;DHT22;21223;45.644;13.756;2022-07-23T05:26:49;28.40;76.80
35033;DHT22;21223;45.644;13.756;2022-07-23T05:29:15;28.30;76.80
35033;DHT22;21223;45.644;13.756;2022-07-23T05:34:07;27.90;78.20
35033;DHT22;21223;45.644;13.756;2022-07-23T05:36:32;27.80;80.10
35033;DHT22;21223;45.644;13.756;2022-07-23T05:38:58;27.80;80.90
35033;DHT22;21223;45.644;13.756;2022-07-23T05:41:24;27.80;80.90
35033;DHT22;21223;45.644;13.756;2022-07-23T05:43:49;27.70;81.70
35033;DHT22;21223;45.644;13.756;2022-07-23T05:46:15;27.70;81.20
35033;DHT22;21223;45.644;13.756;2022-07-23T05:48:41;27.80;80.60
35033;DHT22;21223;45.644;13.756;2022-07-23T05:51:08;27.80;81.50
35033;DHT22;21223;45.644;13.756;2022-07-23T05:53:34;27.90;82.80
35033;DHT22;21223;45.644;13.756;2022-07-23T05:56:00;28.00;83.60
35033;DHT22;21223;45.644;13.756;2022-07-23T05:58:25;28.00;84.40
35033;DHT22;21223;45.644;13.756;2022-07-23T06:00:51;28.10;84.00
35033;DHT22;21223;45.644;13.756;2022-07-23T06:03:17;28.10;83.20
35033;DHT22;21223;45.644;13.756;2022-07-23T06:05:43;28.20;88.90
35033;DHT22;21223;45.644;13.756;2022-07-23T06:08:09;28.20;90.10
35033;DHT22;21223;45.644;13.756;2022-07-23T06:10:34;28.30;90.20
35033;DHT22;21223;45.644;13.756;2022-07-23T06:13:00;28.30;89.80
35033;DHT22;21223;45.644;13.756;2022-07-23T06:15:25;28.30;87.70
35033;DHT22;21223;45.644;13.756;2022-07-23T06:17:51;28.30;86.40
35033;DHT22;21223;45.644;13.756;2022-07-23T06:20:17;28.30;87.60
35033;DHT22;21223;45.644;13.756;2022-07-23T06:22:42;28.40;86.10
35033;DHT22;21223;45.644;13.756;2022-07-23T06:25:08;28.40;85.90
35033;DHT22;21223;45.644;13.756;2022-07-23T06:27:34;28.40;86.60
35033;DHT22;21223;45.644;13.756;2022-07-23T06:29:59;28.40;88.10
35033;DHT22;21223;45.644;13.756;2022-07-23T06:32:25;28.50;87.70
35033;DHT22;21223;45.644;13.756;2022-07-23T06:34:51;28.50;89.10
35033;DHT22;21223;45.644;13.756;2022-07-23T06:37:16;28.50;90.00
35033;DHT22;21223;45.644;13.756;2022-07-23T06:39:42;28.60;89.30
35033;DHT22;21223;45.644;13.756;2022-07-23T06:42:07;28.60;89.50
35033;DHT22;21223;45.644;13.756;2022-07-23T06:44:33;28.60;91.70
35033;DHT22;21223;45.644;13.756;2022-07-23T06:46:59;28.50;89.60
35033;DHT22;21223;45.644;13.756;2022-07-23T06:49:24;28.60;89.60
35033;DHT22;21223;45.644;13.756;2022-07-23T06:51:50;28.60;89.90
35033;DHT22;21223;45.644;13.756;2022-07-23T06:54:16;28.60;91.00
35033;DHT22;21223;45.644;13.756;2022-07-23T06:56:41;28.50;91.70
35033;DHT22;21223;45.644;13.756;2022-07-23T06:59:08;28.60;90.50
35033;DHT22;21223;45.644;13.756;2022-07-23T07:01:34;28.70;94.10
35033;DHT22;21223;45.644;13.756;2022-07-23T07:04:00;28.70;94.60
35033;DHT22;21223;45.644;13.756;2022-07-23T07:06:25;28.80;94.40
35033;DHT22;21223;45.644;13.756;2022-07-23T07:08:51;28.80;94.60
35033;DHT22;21223;45.644;13.756;2022-07-23T07:11:16;28.80;96.10
35033;DHT22;21223;45.644;13.756;2022-07-23T07:13:42;28.90;97.40
35033;DHT22;21223;45.644;13.756;2022-07-23T07:16:08;29.00;96.90
35033;DHT22;21223;45.644;13.756;2022-07-23T07:18:33;29.00;97.20
35033;DHT22;21223;45.644;13.756;2022-07-23T07:20:59;29.10;97.70
35033;DHT22;21223;45.644;13.756;2022-07-23T07:23:25;29.10;98.30
35033;DHT22;21223;45.644;13.756;2022-07-23T07:25:50;29.10;98.80
35033;DHT22;21223;45.644;13.756;2022-07-23T07:28:16;29.10;99.50
35033;DHT22;21223;45.644;13.756;2022-07-23T07:30:41;29.10;99.90
35033;DHT22;21223;45.644;13.756;2022-07-23T07:33:07;29.10;99.90
35033;DHT22;21223;45.644;13.756;2022-07-23T07:35:32;29.00;99.50
35033;DHT22;21223;45.644;13.756;2022-07-23T07:37:59;29.00;99.00
35033;DHT22;21223;45.644;13.756;2022-07-23T07:40:25;29.00;99.80
35033;DHT22;21223;45.644;13.756;2022-07-23T07:42:51;29.20;99.30
35033;DHT22;21223;45.644;13.756;2022-07-23T07:45:17;29.30;99.50
35033;DHT22;21223;45.644;13.756;2022-07-23T07:47:45;29.50;99.90
35033;DHT22;21223;45.644;13.756;2022-07-23T07:50:10;29.80;99.90
35033;DHT22;21223;45.644;13.756;2022-07-23T07:52:36;30.00;99.80
35033;DHT22;21223;45.644;13.756;2022-07-23T07:55:05;30.50;98.80
35033;DHT22;21223;45.644;13.756;2022-07-23T07:57:30;30.70;96.70
35033;DHT22;21223;45.644;13.756;2022-07-23T07:59:56;30.80;93.90
35033;DHT22;21223;45.644;13.756;2022-07-23T08:02:22;31.00;94.00
35033;DHT22;21223;45.644;13.756;2022-07-23T08:04:47;31.40;93.20
35033;DHT22;21223;45.644;13.756;2022-07-23T08:07:14;31.70;91.60
35033;DHT22;21223;45.644;13.756;2022-07-23T08:11:25;31.80;91.60
35033;DHT22;21223;45.644;13.756;2022-07-23T08:13:50;31.50;91.20
35033;DHT22;21223;45.644;13.756;2022-07-23T08:16:16;31.60;90.30
35033;DHT22;21223;45.644;13.756;2022-07-23T08:18:42;32.70;85.40
35033;DHT22;21223;45.644;13.756;2022-07-23T08:21:07;33.80;78.80
35033;DHT22;21223;45.644;13.756;2022-07-23T08:23:33;33.60;80.30
35033;DHT22;21223;45.644;13.756;2022-07-23T08:25:59;32.60;81.20
35033;DHT22;21223;45.644;13.756;2022-07-23T08:28:26;32.30;85.40
35033;DHT22;21223;45.644;13.756;2022-07-23T08:30:52;32.20;84.80
35033;DHT22;21223;45.644;13.756;2022-07-23T08:33:18;32.10;84.90
35033;DHT22;21223;45.644;13.756;2022-07-23T08:35:44;32.00;82.80
35033;DHT22;21223;45.644;13.756;2022-07-23T08:38:12;32.00;81.60
35033;DHT22;21223;45.644;13.756;2022-07-23T08:40:39;31.90;83.30
35033;DHT22;21223;45.644;13.756;2022-07-23T08:43:06;31.80;82.00
35033;DHT22;21223;45.644;13.756;2022-07-23T08:45:35;31.70;80.70
35033;DHT22;21223;45.644;13.756;2022-07-23T08:48:01;31.80;81.30
35033;DHT22;21223;45.644;13.756;2022-07-23T08:50:27;31.90;82.20
35033;DHT22;21223;45.644;13.756;2022-07-23T08:52:53;31.90;80.20
35033;DHT22;21223;45.644;13.756;2022-07-23T08:55:19;31.90;81.20
35033;DHT22;21223;45.644;13.756;2022-07-23T08:57:46;31.80;77.50
35033;DHT22;21223;45.644;13.756;2022-07-23T09:00:13;31.80;76.60
35033;DHT22;21223;45.644;13.756;2022-07-23T09:02:43;31.90;77.30
35033;DHT22;21223;45.644;13.756;2022-07-23T09:05:10;31.80;75.80
35033;DHT22;21223;45.644;13.756;2022-07-23T09:07:38;32.00;74.00
35033;DHT22;21223;45.644;13.756;2022-07-23T09:10:23;32.20;72.80
35033;DHT22;21223;45.644;13.756;2022-07-23T09:12:49;32.40;71.30
35033;DHT22;21223;45.644;13.756;2022-07-23T09:15:14;32.40;69.20
35033;DHT22;21223;45.644;13.756;2022-07-23T09:17:42;32.50;69.90
